Time;durP1;ratioP1;P1;durP2;ratioP2;P2;SDS_P1;SDS_P2;PMS_P1;PMS_P2;Temp;Humidity;BMP_temperature;BMP_pressure;BME280_temperature;BME280_humidity;BME280_pressure;Samples;Min_cycle;Max_cycle;Signal;HPM_P1;HPM_P2
2021/05/20 00:00:01;;;;;;;3.83;3.00;;;13.40;99.90;;;;;;5000401;28;20401;-77
2021/05/20 00:02:27;;;;;;;4.45;3.45;;;13.30;99.90;;;;;;5000185;28;20034;-78
2021/05/20 00:04:52;;;;;;;4.53;3.33;;;13.20;99.90;;;;;;4998859;28;20026;-78
2021/05/20 00:07:18;;;;;;;4.43;3.78;;;13.20;99.90;;;;;;4998119;28;20481;-78
2021/05/20 00:09:44;;;;;;;4.32;3.70;;;13.10;99.90;;;;;;4995864;28;20034;-77
2021/05/20 00:12:09;;;;;;;7.80;3.58;;;13.00;99.90;;;;;;4996991;28;20053;-77
2021/05/20 00:14:38;;;;;;;5.40;3.95;;;13.00;99.90;;;;;;4994564;28;20034;-78
2021/05/20 00:17:04;;;;;;;4.05;3.28;;;13.00;99.90;;;;;;4998193;28;20547;-77
2021/05/20 00:19:30;;;;;;;6.13;3.92;;;13.00;99.90;;;;;;4978891;28;20552;-78
2021/05/20 00:21:56;;;;;;;6.75;3.83;;;13.10;99.90;;;;;;4994784;28;20046;-78
2021/05/20 00:24:21;;;;;;;4.40;3.45;;;13.10;99.90;;;;;;4994703;28;20120;-79
2021/05/20 00:26:47;;;;;;;3.53;2.95;;;13.10;99.90;;;;;;4988623;28;20026;-77
2021/05/20 00:29:13;;;;;;;3.55;3.03;;;13.10;99.90;;;;;;4994964;28;20030;-77
2021/05/20 00:31:38;;;;;;;3.67;3.15;;;13.10;99.90;;;;;;4996219;28;20022;-78
2021/05/20 00:34:05;;;;;;;3.47;3.00;;;13.10;99.90;;;;;;4993474;28;20041;-76
2021/05/20 00:36:31;;;;;;;4.03;3.30;;;13.10;99.90;;;;;;4990810;28;20042;-78
2021/05/20 00:38:58;;;;;;;3.17;2.88;;;13.10;99.90;;;;;;4975533;28;20043;-76
2021/05/20 00:41:23;;;;;;;4.65;2.90;;;13.10;99.90;;;;;;4979937;28;20529;-77
2021/05/20 00:43:49;;;;;;;3.63;2.90;;;13.10;99.90;;;;;;4985706;28;20027;-78
2021/05/20 00:46:15;;;;;;;6.25;3.83;;;13.10;99.90;;;;;;4985605;28;20094;-78
2021/05/20 00:48:41;;;;;;;3.67;3.13;;;13.00;99.90;;;;;;4985621;28;20054;-79
2021/05/20 00:51:06;;;;;;;4.80;3.03;;;13.00;99.90;;;;;;4984199;28;20110;-79
2021/05/20 00:53:32;;;;;;;3.72;3.00;;;12.90;99.90;;;;;;4984238;28;20049;-77
2021/05/20 00:55:58;;;;;;;4.85;3.15;;;12.80;99.90;;;;;;4988000;28;20026;-77
2021/05/20 00:58:24;;;;;;;3.70;2.90;;;12.70;99.90;;;;;;4980372;28;20073;-77
2021/05/20 01:00:54;;;;;;;4.05;2.88;;;12.70;99.90;;;;;;4978997;28;20030;-77
2021/05/20 01:03:20;;;;;;;3.65;2.75;;;12.70;99.90;;;;;;4978436;28;20027;-77
2021/05/20 01:05:47;;;;;;;3.33;2.70;;;12.60;99.90;;;;;;4979432;28;20019;-77
2021/05/20 01:08:12;;;;;;;3.95;3.03;;;12.60;99.90;;;;;;4982519;28;20038;-77
2021/05/20 01:10:38;;;;;;;3.85;2.90;;;12.60;99.90;;;;;;4990291;28;20023;-78
2021/05/20 01:13:04;;;;;;;3.75;3.20;;;12.60;99.90;;;;;;4985313;28;20022;-78
2021/05/20 01:15:32;;;;;;;2.65;2.45;;;12.60;99.90;;;;;;4977400;28;20026;-77
2021/05/20 01:17:59;;;;;;;3.00;2.70;;;12.50;99.90;;;;;;4985769;28;20091;-77
2021/05/20 01:20:30;;;;;;;4.53;2.95;;;12.60;99.90;;;;;;4959430;28;20037;-76
2021/05/20 01:23:22;;;;;;;3.38;2.50;;;12.60;99.90;;;;;;4979196;28;20023;-78
2021/05/20 01:25:49;;;;;;;;;;;12.60;99.90;;;;;;4984976;28;20098;-77
2021/05/20 01:28:17;;;;;;;3.53;2.72;;;12.70;99.90;;;;;;4984266;28;20555;-77
2021/05/20 01:30:44;;;;;;;2.92;2.55;;;12.70;99.90;;;;;;4982215;28;20090;-76
2021/05/20 01:33:10;;;;;;;3.88;2.58;;;12.70;99.90;;;;;;4985025;28;20035;-77
2021/05/20 01:35:37;;;;;;;3.53;2.55;;;12.70;99.90;;;;;;4985931;28;20031;-77
2021/05/20 01:40:58;;;;;;;2.92;2.63;;;12.70;99.90;;;;;;4981660;28;20050;-77
2021/05/20 01:43:25;;;;;;;3.58;2.60;;;12.60;99.90;;;;;;4980100;28;20086;-79
2021/05/20 01:45:57;;;;;;;5.75;2.80;;;12.60;99.90;;;;;;4980158;28;20500;-78
2021/05/20 01:48:24;;;;;;;3.03;2.30;;;12.60;99.90;;;;;;4980278;28;20023;-77
2021/05/20 01:50:50;;;;;;;3.72;2.58;;;12.50;99.90;;;;;;4977257;28;20038;-77
2021/05/20 01:53:16;;;;;;;3.50;2.40;;;12.50;99.90;;;;;;4976923;28;20035;-77
2021/05/20 01:55:42;;;;;;;2.90;2.60;;;12.50;99.90;;;;;;4977876;28;20377;-76
2021/05/20 01:58:07;;;;;;;2.58;2.35;;;12.50;99.90;;;;;;4974930;28;20390;-77
2021/05/20 02:00:34;;;;;;;3.88;2.55;;;12.50;99.90;;;;;;4972493;28;20019;-77
2021/05/20 02:02:59;;;;;;;3.40;2.50;;;12.50;99.90;;;;;;4974497;28;20030;-78
2021/05/20 02:05:25;;;;;;;2.75;2.47;;;12.50;99.90;;;;;;4972191;28;20715;-77
2021/05/20 02:07:50;;;;;;;4.28;2.50;;;12.40;99.90;;;;;;4971570;28;20031;-77
2021/05/20 02:10:16;;;;;;;3.03;2.72;;;12.40;99.90;;;;;;4972906;28;20359;-77
2021/05/20 02:12:42;;;;;;;3.70;2.58;;;12.40;99.90;;;;;;4976082;28;20031;-77
2021/05/20 02:15:08;;;;;;;2.67;2.47;;;12.40;99.90;;;;;;4976391;28;20030;-77
2021/05/20 02:17:36;;;;;;;3.42;2.67;;;12.30;99.90;;;;;;4974550;28;20076;-78
2021/05/20 02:20:05;;;;;;;2.88;2.60;;;12.40;99.90;;;;;;4976154;28;20026;-77
2021/05/20 02:22:31;;;;;;;3.40;2.30;;;12.30;99.90;;;;;;4970406;28;20026;-77
2021/05/20 02:24:58;;;;;;;2.63;2.30;;;12.30;99.90;;;;;;4970686;28;21951;-78
2021/05/20 02:27:24;;;;;;;2.83;2.55;;;12.30;99.90;;;;;;4974599;28;20023;-77
2021/05/20 02:29:49;;;;;;;2.70;2.40;;;12.30;99.90;;;;;;4972066;28;20197;-77
2021/05/20 02:32:15;;;;;;;3.35;2.10;;;12.30;99.90;;;;;;4967631;28;20038;-78
2021/05/20 02:34:41;;;;;;;6.22;2.60;;;12.20;99.90;;;;;;4974153;28;20058;-77
2021/05/20 02:37:06;;;;;;;2.92;2.38;;;12.20;99.90;;;;;;4978734;28;20030;-77
2021/05/20 02:39:32;;;;;;;2.80;2.38;;;12.20;99.90;;;;;;4995860;28;20484;-77
2021/05/20 02:41:57;;;;;;;2.58;2.33;;;12.20;99.90;;;;;;4995146;28;20026;-78
2021/05/20 02:44:24;;;;;;;2.78;2.47;;;12.20;99.90;;;;;;4990756;28;20026;-78
2021/05/20 02:46:50;;;;;;;5.10;2.80;;;12.10;99.90;;;;;;4989481;28;20023;-78
2021/05/20 02:49:15;;;;;;;2.60;2.20;;;12.10;99.90;;;;;;4989006;28;20097;-77
2021/05/20 02:51:41;;;;;;;4.03;2.60;;;12.20;99.90;;;;;;4990228;28;20110;-78
2021/05/20 02:54:06;;;;;;;3.40;2.53;;;12.20;99.90;;;;;;4991977;28;20106;-77
2021/05/20 02:56:32;;;;;;;2.72;2.35;;;12.20;99.90;;;;;;4992433;28;20026;-78
2021/05/20 02:58:57;;;;;;;3.78;2.58;;;12.20;99.90;;;;;;4989929;28;20078;-77
2021/05/20 03:01:24;;;;;;;2.50;2.28;;;12.20;99.90;;;;;;4991682;28;20022;-78
2021/05/20 03:03:49;;;;;;;2.92;2.60;;;12.20;99.90;;;;;;4990365;28;20030;-77
2021/05/20 03:06:15;;;;;;;4.10;2.17;;;12.10;99.90;;;;;;4994151;28;20030;-77
2021/05/20 03:08:41;;;;;;;2.40;2.20;;;12.10;99.90;;;;;;4995327;28;20241;-77
2021/05/20 03:11:07;;;;;;;4.28;2.38;;;12.10;99.90;;;;;;4976703;28;20053;-77
2021/05/20 03:13:32;;;;;;;2.65;2.45;;;12.10;99.90;;;;;;4992924;28;20045;-76
2021/05/20 03:15:58;;;;;;;3.33;2.35;;;12.10;99.90;;;;;;4995312;28;20030;-77
2021/05/20 03:18:23;;;;;;;3.03;2.42;;;12.10;99.90;;;;;;4998673;28;20125;-78
2021/05/20 03:20:49;;;;;;;2.78;2.47;;;12.10;99.90;;;;;;4998169;28;20029;-77
2021/05/20 03:23:15;;;;;;;6.55;2.65;;;12.10;99.90;;;;;;4994354;28;20034;-77
2021/05/20 03:25:41;;;;;;;2.40;2.20;;;12.20;99.90;;;;;;4997359;28;20049;-77
2021/05/20 03:28:06;;;;;;;4.70;2.78;;;12.10;99.90;;;;;;4998745;28;20026;-77
2021/05/20 03:30:32;;;;;;;3.33;2.38;;;12.20;99.90;;;;;;4997131;28;20081;-78
2021/05/20 03:32:58;;;;;;;4.25;3.85;;;12.10;99.90;;;;;;4982465;28;20023;-78
2021/05/20 03:35:24;;;;;;;4.10;3.25;;;12.10;99.90;;;;;;5001848;28;20046;-78
2021/05/20 03:37:50;;;;;;;3.75;2.92;;;12.10;99.90;;;;;;4979114;28;20035;-77
2021/05/20 03:40:16;;;;;;;3.17;2.88;;;12.10;99.90;;;;;;4978611;28;20034;-77
2021/05/20 03:42:42;;;;;;;3.47;2.90;;;12.10;99.90;;;;;;4979020;28;20019;-78
2021/05/20 03:45:08;;;;;;;3.88;3.28;;;12.10;99.90;;;;;;4978266;28;20034;-79
2021/05/20 03:47:34;;;;;;;3.15;2.83;;;12.00;99.90;;;;;;4990478;28;20047;-78
2021/05/20 03:50:00;;;;;;;3.22;2.92;;;11.90;99.90;;;;;;4995031;28;20027;-77
2021/05/20 03:52:26;;;;;;;5.03;3.20;;;12.00;99.90;;;;;;4986871;28;20106;-79
2021/05/20 03:54:52;;;;;;;3.85;3.22;;;12.00;99.90;;;;;;4977769;28;20038;-78
2021/05/20 03:57:17;;;;;;;4.03;3.00;;;12.00;99.90;;;;;;4968374;28;20049;-77
2021/05/20 03:59:43;;;;;;;4.00;3.60;;;12.10;99.90;;;;;;4987327;28;20038;-77
2021/05/20 04:02:09;;;;;;;5.93;4.00;;;12.10;99.90;;;;;;4987394;28;20031;-77
2021/05/20 04:04:35;;;;;;;3.50;3.20;;;12.10;99.90;;;;;;4991095;28;19999;-77
2021/05/20 04:07:01;;;;;;;4.65;3.63;;;12.10;99.90;;;;;;4989542;28;20027;-77
2021/05/20 04:09:27;;;;;;;4.30;3.90;;;12.10;99.90;;;;;;4990503;28;20042;-77
2021/05/20 04:11:53;;;;;;;4.50;4.05;;;12.10;99.90;;;;;;4989137;28;20031;-77
2021/05/20 04:14:19;;;;;;;4.95;4.22;;;12.10;99.90;;;;;;4990642;28;20054;-76
2021/05/20 04:16:44;;;;;;;5.57;4.20;;;12.10;99.90;;;;;;4994942;28;20336;-77
2021/05/20 04:19:11;;;;;;;3.85;3.30;;;12.10;99.90;;;;;;4991512;28;20030;-78
2021/05/20 04:21:37;;;;;;;4.68;4.10;;;12.10;99.90;;;;;;4989256;28;20024;-77
2021/05/20 04:24:08;;;;;;;5.03;4.53;;;12.10;99.90;;;;;;4990652;28;20026;-77
2021/05/20 04:26:33;;;;;;;5.35;4.00;;;12.00;99.90;;;;;;4969611;28;20031;-78
2021/05/20 04:28:59;;;;;;;4.65;4.25;;;12.10;99.90;;;;;;4988187;28;20027;-77
2021/05/20 04:31:25;;;;;;;7.07;4.82;;;12.00;99.90;;;;;;4990799;28;20041;-77
2021/05/20 04:33:50;;;;;;;4.60;4.10;;;12.10;99.90;;;;;;4984126;28;20035;-79
2021/05/20 04:36:16;;;;;;;4.10;3.70;;;12.10;99.90;;;;;;4976241;28;20090;-78
2021/05/20 04:38:43;;;;;;;4.85;4.35;;;12.10;99.90;;;;;;5001712;28;20046;-78
2021/05/20 04:41:09;;;;;;;5.95;4.60;;;12.10;99.90;;;;;;5008084;28;20018;-78
2021/05/20 04:43:35;;;;;;;6.78;4.28;;;12.10;99.90;;;;;;5016261;28;20042;-78
2021/05/20 04:46:01;;;;;;;6.22;4.53;;;12.10;99.90;;;;;;5009810;28;20058;-79
2021/05/20 04:48:27;;;;;;;5.68;5.05;;;12.10;99.90;;;;;;5012988;28;20019;-78
2021/05/20 04:50:55;;;;;;;7.38;4.57;;;12.10;99.90;;;;;;5014528;28;20010;-78
2021/05/20 04:53:24;;;;;;;5.40;4.90;;;12.10;99.90;;;;;;5011446;28;20032;-76
2021/05/20 04:55:50;;;;;;;5.47;4.88;;;12.20;99.90;;;;;;5013128;28;20053;-78
2021/05/20 04:58:16;;;;;;;7.63;5.95;;;12.20;99.90;;;;;;5008534;28;20038;-78
2021/05/20 05:00:42;;;;;;;7.65;5.60;;;12.10;99.90;;;;;;5001693;28;20054;-78
2021/05/20 05:03:11;;;;;;;6.25;5.40;;;12.20;99.90;;;;;;5010082;28;20030;-78
2021/05/20 05:05:37;;;;;;;6.97;5.88;;;12.40;99.90;;;;;;4993128;28;20014;-79
2021/05/20 05:08:04;;;;;;;8.07;6.80;;;12.40;99.90;;;;;;5010764;28;20046;-78
2021/05/20 05:10:29;;;;;;;7.72;5.97;;;12.50;99.90;;;;;;5006933;28;20023;-78
2021/05/20 05:12:55;;;;;;;8.60;6.57;;;12.60;99.90;;;;;;5010556;28;20018;-79
2021/05/20 05:15:21;;;;;;;7.82;6.70;;;13.00;99.90;;;;;;5011368;28;20026;-78
2021/05/20 05:17:46;;;;;;;5.82;5.30;;;13.00;99.90;;;;;;5010239;28;20042;-78
2021/05/20 05:20:12;;;;;;;6.65;5.32;;;13.20;99.90;;;;;;5003832;28;20027;-78
2021/05/20 05:22:38;;;;;;;5.90;5.28;;;13.50;99.90;;;;;;5014318;28;20018;-79
2021/05/20 05:25:04;;;;;;;6.40;5.45;;;13.50;99.90;;;;;;5012221;28;20029;-78
2021/05/20 05:27:33;;;;;;;6.97;6.22;;;13.40;99.90;;;;;;5006019;28;20019;-78
2021/05/20 05:30:01;;;;;;;8.52;6.25;;;13.00;99.90;;;;;;5010689;28;20010;-79
2021/05/20 05:32:27;;;;;;;7.00;5.65;;;13.10;99.90;;;;;;5018433;28;20022;-78
2021/05/20 05:34:53;;;;;;;6.97;5.72;;;13.30;99.90;;;;;;5016872;28;20038;-80
2021/05/20 05:37:18;;;;;;;7.10;5.20;;;13.30;99.90;;;;;;5016161;28;20034;-79
2021/05/20 05:39:45;;;;;;;9.25;6.78;;;13.30;99.90;;;;;;5003857;28;20034;-78
2021/05/20 05:42:11;;;;;;;7.43;6.40;;;13.40;99.90;;;;;;5019568;28;20038;-78
2021/05/20 05:44:41;;;;;;;6.68;5.75;;;13.50;99.90;;;;;;5004416;28;20022;-78
2021/05/20 05:47:08;;;;;;;6.15;4.55;;;13.40;99.90;;;;;;4998789;28;20027;-78
2021/05/20 05:49:42;;;;;;;6.00;4.80;;;13.40;99.90;;;;;;5007137;28;20034;-78
2021/05/20 05:52:09;;;;;;;8.13;5.22;;;13.40;99.90;;;;;;5005656;28;20031;-78
2021/05/20 05:54:35;;;;;;;7.60;6.00;;;13.40;99.90;;;;;;4999347;28;20010;-77
2021/05/20 05:57:02;;;;;;;6.95;5.32;;;13.50;99.90;;;;;;5001427;28;20030;-78
2021/05/20 05:59:28;;;;;;;6.95;5.03;;;13.90;99.90;;;;;;5001764;28;20038;-76
2021/05/20 06:01:58;;;;;;;6.82;5.43;;;13.90;99.90;;;;;;5000223;28;20056;-80
2021/05/20 06:04:25;;;;;;;6.22;5.63;;;14.00;99.90;;;;;;5006635;28;20030;-78
2021/05/20 06:06:50;;;;;;;10.90;7.55;;;14.40;99.90;;;;;;5003523;28;20092;-79
2021/05/20 06:09:16;;;;;;;13.02;10.15;;;14.20;99.90;;;;;;4999744;28;20026;-76
2021/05/20 06:11:45;;;;;;;6.68;5.63;;;14.00;99.90;;;;;;4992887;28;20034;-74
2021/05/20 06:14:11;;;;;;;12.15;8.60;;;14.20;99.90;;;;;;4992228;28;20035;-74
2021/05/20 06:16:40;;;;;;;11.15;9.32;;;14.30;99.90;;;;;;4989317;28;20033;-75
2021/05/20 06:19:07;;;;;;;9.52;5.97;;;14.10;99.90;;;;;;4990203;28;20035;-74
2021/05/20 06:21:33;;;;;;;9.20;7.22;;;14.10;99.90;;;;;;4986808;28;20363;-75
2021/05/20 06:23:59;;;;;;;7.60;5.85;;;14.10;99.90;;;;;;4986579;28;20061;-75
2021/05/20 06:26:27;;;;;;;12.43;6.28;;;14.20;99.90;;;;;;4985491;28;20038;-75
2021/05/20 06:28:56;;;;;;;9.65;6.88;;;14.10;99.90;;;;;;4979560;28;20140;-74
2021/05/20 06:31:22;;;;;;;7.57;5.75;;;14.30;99.90;;;;;;4987279;28;20030;-75
2021/05/20 06:33:48;;;;;;;13.38;7.03;;;14.40;99.90;;;;;;4995608;28;20029;-76
2021/05/20 06:36:15;;;;;;;6.50;5.63;;;14.40;99.90;;;;;;4994601;28;20039;-79
2021/05/20 06:38:42;;;;;;;8.82;5.50;;;14.20;99.90;;;;;;4993610;28;20049;-78
2021/05/20 06:41:09;;;;;;;7.97;6.40;;;14.20;99.90;;;;;;4995556;28;20476;-77
2021/05/20 06:43:38;;;;;;;7.45;5.82;;;14.10;99.90;;;;;;4997458;28;20018;-78
2021/05/20 06:46:07;;;;;;;6.63;5.97;;;14.40;99.90;;;;;;4995749;28;20026;-77
2021/05/20 06:48:33;;;;;;;8.80;5.80;;;14.70;99.90;;;;;;4990360;28;20118;-76
2021/05/20 06:50:59;;;;;;;5.55;4.97;;;15.20;99.90;;;;;;4993231;28;20042;-78
2021/05/20 06:53:26;;;;;;;8.40;6.40;;;15.20;99.90;;;;;;4993862;28;20030;-77
2021/05/20 06:55:58;;;;;;;8.27;6.38;;;15.60;99.90;;;;;;4994991;28;20023;-77
2021/05/20 07:01:09;;;;;;;6.82;6.13;;;15.50;99.90;;;;;;4993669;28;20121;-79
2021/05/20 07:03:34;;;;;;;7.75;6.15;;;15.50;99.90;;;;;;4993961;28;20054;-77
2021/05/20 07:06:00;;;;;;;8.70;4.93;;;15.60;99.90;;;;;;4994893;28;20037;-78
2021/05/20 07:08:26;;;;;;;10.32;5.85;;;15.70;99.90;;;;;;4978373;28;20038;-77
2021/05/20 07:10:56;;;;;;;6.57;5.30;;;15.60;99.90;;;;;;4994954;28;20022;-77
2021/05/20 07:13:22;;;;;;;8.55;5.50;;;16.10;99.80;;;;;;4991411;28;20026;-77
2021/05/20 07:15:48;;;;;;;7.35;4.60;;;16.10;99.90;;;;;;4996062;28;20512;-79
2021/05/20 07:18:15;;;;;;;8.38;5.80;;;16.80;98.10;;;;;;4997074;28;20501;-77
2021/05/20 07:20:41;;;;;;;10.90;6.55;;;16.90;98.30;;;;;;4997474;28;20054;-77
2021/05/20 07:23:14;;;;;;;5.45;4.72;;;17.10;96.90;;;;;;4997499;28;20081;-77
2021/05/20 07:25:40;;;;;;;4.60;4.05;;;17.20;96.90;;;;;;4998316;28;20030;-78
2021/05/20 07:28:07;;;;;;;4.80;3.83;;;18.50;95.00;;;;;;4996268;28;20034;-78
2021/05/20 07:30:33;;;;;;;4.68;4.05;;;18.00;92.50;;;;;;4996232;28;20061;-78
2021/05/20 07:32:59;;;;;;;4.18;3.28;;;19.20;81.20;;;;;;4998539;28;20056;-77
2021/05/20 07:35:25;;;;;;;3.63;3.33;;;19.10;80.70;;;;;;4999183;28;20045;-78
2021/05/20 07:37:51;;;;;;;5.55;3.08;;;19.90;76.00;;;;;;4999465;28;20039;-77
2021/05/20 07:40:18;;;;;;;6.28;3.10;;;20.30;71.60;;;;;;4983864;28;20022;-78
2021/05/20 07:42:44;;;;;;;5.10;2.65;;;19.20;72.80;;;;;;4984932;28;20034;-77
2021/05/20 07:45:11;;;;;;;9.82;3.95;;;19.10;70.60;;;;;;4978389;28;20041;-78
2021/05/20 07:47:40;;;;;;;6.15;3.05;;;18.80;72.80;;;;;;4977095;28;20445;-78
2021/05/20 07:50:07;;;;;;;4.85;3.40;;;19.60;68.80;;;;;;4978994;28;20055;-78
2021/05/20 07:52:33;;;;;;;4.22;2.63;;;19.60;69.20;;;;;;4977722;28;20022;-79
2021/05/20 07:54:59;;;;;;;8.70;3.20;;;19.20;68.40;;;;;;4979715;28;20050;-78
2021/05/20 07:57:25;;;;;;;3.90;2.53;;;18.70;71.60;;;;;;4979448;28;20506;-77
2021/05/20 07:59:52;;;;;;;5.95;3.17;;;18.80;70.10;;;;;;4978273;28;20422;-77
2021/05/20 08:04:51;;;;;;;5.10;3.55;;;18.30;71.90;;;;;;4968994;28;20023;-78
2021/05/20 08:07:28;;;;;;;4.65;3.28;;;18.30;73.00;;;;;;4963214;28;20136;-75
2021/05/20 08:12:46;;;;;;;3.70;2.78;;;19.30;70.10;;;;;;4943100;28;20405;-77
2021/05/20 08:15:12;;;;;;;3.95;2.50;;;21.70;62.40;;;;;;4973431;28;20033;-75
2021/05/20 08:17:37;;;;;;;3.10;2.58;;;22.10;57.70;;;;;;4973145;28;20023;-75
2021/05/20 08:20:05;;;;;;;5.07;2.25;;;22.10;59.60;;;;;;4974124;28;20033;-75
2021/05/20 08:22:31;;;;;;;4.82;2.53;;;23.80;55.00;;;;;;4974155;28;20034;-74
2021/05/20 08:24:59;;;;;;;4.88;2.40;;;24.10;52.80;;;;;;4974246;28;20027;-75
2021/05/20 08:27:25;;;;;;;4.63;3.00;;;23.20;53.90;;;;;;4973292;28;20023;-74
2021/05/20 08:29:50;;;;;;;4.53;2.53;;;22.70;54.30;;;;;;4974189;28;20528;-75
2021/05/20 08:32:16;;;;;;;5.88;2.67;;;21.00;57.00;;;;;;4971135;28;20023;-75
2021/05/20 08:34:42;;;;;;;4.38;2.60;;;21.40;58.10;;;;;;4973731;28;20097;-74
2021/05/20 08:37:08;;;;;;;5.13;2.95;;;22.60;56.10;;;;;;4976388;28;20029;-75
2021/05/20 08:39:33;;;;;;;3.20;2.50;;;23.80;54.60;;;;;;4971717;28;20039;-76
2021/05/20 08:41:59;;;;;;;2.50;2.20;;;25.50;50.80;;;;;;4971955;28;20027;-76
2021/05/20 08:44:29;;;;;;;3.33;2.60;;;25.40;48.90;;;;;;4971897;28;20027;-75
2021/05/20 08:46:57;;;;;;;4.82;2.30;;;24.50;49.80;;;;;;4972800;28;20033;-74
2021/05/20 08:49:24;;;;;;;5.18;2.88;;;22.40;52.70;;;;;;4973878;28;20089;-75
2021/05/20 08:51:50;;;;;;;5.47;1.88;;;22.40;53.70;;;;;;4974288;28;20500;-75
2021/05/20 08:54:18;;;;;;;5.28;2.42;;;22.00;54.90;;;;;;4972717;28;20253;-75
2021/05/20 08:56:44;;;;;;;2.80;1.70;;;22.60;53.30;;;;;;4972900;28;20034;-75
2021/05/20 08:59:10;;;;;;;3.17;1.95;;;23.20;52.30;;;;;;4972018;28;20058;-75
2021/05/20 09:01:38;;;;;;;7.32;1.85;;;23.60;51.20;;;;;;4971466;28;20497;-75
2021/05/20 09:04:04;;;;;;;4.13;1.90;;;24.00;50.10;;;;;;4971398;28;20218;-78
2021/05/20 09:06:38;;;;;;;4.63;1.70;;;24.90;49.30;;;;;;4971944;28;20027;-77
2021/05/20 09:09:08;;;;;;;3.38;1.80;;;26.10;47.60;;;;;;4968255;28;20085;-75
2021/05/20 09:11:33;;;;;;;2.17;1.67;;;25.10;48.50;;;;;;4972327;28;20065;-74
2021/05/20 09:14:05;;;;;;;2.05;1.50;;;24.30;49.20;;;;;;4971921;28;20038;-76
2021/05/20 09:16:35;;;;;;;6.07;2.42;;;24.50;49.30;;;;;;4970995;28;20030;-76
2021/05/20 09:19:01;;;;;;;4.17;1.90;;;25.20;47.50;;;;;;4971339;28;20035;-75
2021/05/20 09:21:27;;;;;;;1.95;1.73;;;24.20;48.20;;;;;;4971673;28;20305;-76
2021/05/20 09:23:53;;;;;;;2.25;1.58;;;23.10;50.20;;;;;;4971521;28;20523;-75
2021/05/20 09:26:31;;;;;;;3.95;2.10;;;21.30;52.70;;;;;;4972883;28;20031;-76
2021/05/20 09:29:07;;;;;;;2.17;1.58;;;21.00;55.40;;;;;;4969219;28;20026;-75
2021/05/20 09:31:43;;;;;;;2.08;1.33;;;22.20;52.80;;;;;;4969035;28;20385;-77
2021/05/20 09:34:15;;;;;;;2.58;1.77;;;22.90;51.20;;;;;;4970812;28;20233;-75
2021/05/20 09:36:48;;;;;;;3.50;2.10;;;22.20;51.30;;;;;;4971267;28;20190;-74
2021/05/20 09:39:15;;;;;;;3.47;1.73;;;21.50;53.40;;;;;;4971363;28;20430;-75
2021/05/20 09:41:42;;;;;;;3.67;1.70;;;21.50;53.00;;;;;;4972239;28;20124;-74
2021/05/20 09:44:30;;;;;;;2.05;1.48;;;21.90;52.00;;;;;;4972202;28;20511;-75
2021/05/20 09:46:56;;;;;;;4.53;1.95;;;21.10;52.90;;;;;;4970790;28;20109;-76
2021/05/20 09:49:25;;;;;;;2.80;1.60;;;20.60;54.60;;;;;;4974478;28;20115;-75
2021/05/20 09:52:21;;;;;;;4.55;2.97;;;20.10;56.50;;;;;;4970256;28;20030;-76
2021/05/20 09:54:47;;;;;;;3.67;1.80;;;21.30;54.00;;;;;;4970664;28;20070;-77
2021/05/20 09:57:24;;;;;;;5.78;2.42;;;21.40;53.20;;;;;;4972502;28;20508;-77
2021/05/20 10:00:07;;;;;;;4.03;3.05;;;20.50;55.00;;;;;;4977741;28;20066;-77
2021/05/20 10:02:32;;;;;;;3.55;2.83;;;20.40;55.60;;;;;;4975816;28;20106;-76
2021/05/20 10:05:26;;;;;;;6.43;3.20;;;19.90;55.40;;;;;;4976796;28;20054;-78
2021/05/20 10:07:52;;;;;;;5.43;2.33;;;21.00;53.90;;;;;;4965862;28;20023;-79
2021/05/20 10:10:19;;;;;;;4.05;2.30;;;22.30;52.40;;;;;;4970298;28;20027;-76
2021/05/20 10:12:45;;;;;;;5.22;2.80;;;23.70;49.80;;;;;;4970903;28;20038;-77
2021/05/20 10:15:17;;;;;;;3.70;2.40;;;23.40;48.60;;;;;;4969288;28;20465;-77
2021/05/20 10:17:44;;;;;;;2.72;2.10;;;22.70;49.80;;;;;;4970798;28;20522;-76
2021/05/20 10:20:12;;;;;;;3.60;1.73;;;21.60;50.50;;;;;;4969631;28;20026;-76
2021/05/20 10:22:37;;;;;;;4.50;2.67;;;22.20;50.80;;;;;;4970006;28;20389;-77
2021/05/20 10:25:05;;;;;;;4.63;2.28;;;23.30;48.70;;;;;;4970930;28;20025;-76
2021/05/20 10:27:31;;;;;;;2.63;2.03;;;23.20;48.20;;;;;;4970484;28;20512;-76
2021/05/20 10:30:00;;;;;;;2.83;1.70;;;23.80;47.80;;;;;;4968713;28;20057;-77
2021/05/20 10:32:28;;;;;;;5.68;4.43;;;24.70;47.40;;;;;;4960503;28;20031;-77
2021/05/20 10:35:15;;;;;;;2.40;1.63;;;26.30;45.40;;;;;;4965410;28;20114;-76
2021/05/20 10:37:41;;;;;;;2.83;2.28;;;23.50;46.10;;;;;;4970270;28;20466;-78
2021/05/20 10:40:24;;;;;;;3.95;2.05;;;22.10;50.30;;;;;;4969431;28;20106;-76
2021/05/20 10:43:02;;;;;;;2.72;2.20;;;23.30;49.10;;;;;;4970039;28;20477;-77
2021/05/20 10:45:27;;;;;;;2.13;1.60;;;25.20;46.50;;;;;;4967218;28;20023;-78
2021/05/20 10:48:02;;;;;;;1.60;1.50;;;26.60;42.70;;;;;;4968081;28;20108;-77
2021/05/20 10:50:56;;;;;;;3.90;2.25;;;26.70;42.90;;;;;;4969619;28;20043;-79
2021/05/20 10:53:56;;;;;;;3.95;2.15;;;26.20;42.00;;;;;;4969391;28;20039;-77
2021/05/20 10:56:22;;;;;;;4.05;1.88;;;24.10;46.00;;;;;;4970263;28;20493;-77
2021/05/20 10:58:48;;;;;;;3.60;1.50;;;24.60;45.20;;;;;;4969640;28;20038;-77
2021/05/20 11:01:26;;;;;;;3.30;2.25;;;25.10;43.60;;;;;;4970057;28;20273;-77
2021/05/20 11:03:53;;;;;;;15.85;5.13;;;24.60;44.00;;;;;;4958440;28;20033;-79
2021/05/20 11:06:46;;;;;;;2.10;1.90;;;25.70;42.90;;;;;;4968040;28;20482;-79
2021/05/20 11:09:13;;;;;;;4.43;3.58;;;26.80;42.70;;;;;;4966514;28;20076;-79
2021/05/20 11:11:39;;;;;;;3.30;1.80;;;27.90;41.60;;;;;;4969479;28;20687;-79
2021/05/20 11:14:14;;;;;;;3.00;2.00;;;25.50;42.10;;;;;;4970020;28;20548;-79
2021/05/20 11:16:44;;;;;;;3.47;2.53;;;23.10;45.00;;;;;;4970871;28;20034;-79
2021/05/20 11:19:22;;;;;;;2.85;2.00;;;23.00;45.70;;;;;;4969611;28;20121;-78
2021/05/20 11:22:03;;;;;;;4.55;2.55;;;22.60;47.00;;;;;;4969704;28;20081;-76
2021/05/20 11:24:41;;;;;;;2.78;2.50;;;22.60;47.50;;;;;;4966461;28;20031;-78
2021/05/20 11:27:17;;;;;;;4.05;3.65;;;24.70;45.40;;;;;;4970435;28;20054;-79
2021/05/20 11:29:47;;;;;;;2.25;1.75;;;26.00;43.70;;;;;;4972181;28;20347;-78
2021/05/20 11:32:34;;;;;;;2.33;1.55;;;24.20;43.80;;;;;;4969213;28;20093;-77
2021/05/20 11:35:57;;;;;;;2.60;1.88;;;24.20;44.60;;;;;;4966447;28;20035;-78
2021/05/20 11:38:24;;;;;;;5.38;1.83;;;24.30;44.30;;;;;;4968300;28;20058;-77
2021/05/20 11:40:50;;;;;;;3.35;2.25;;;23.90;44.70;;;;;;4969310;28;20443;-78
2021/05/20 11:43:29;;;;;;;3.10;1.63;;;23.50;44.00;;;;;;4969425;28;20066;-77
2021/05/20 11:45:54;;;;;;;4.20;2.17;;;24.10;45.10;;;;;;4965352;28;20019;-77
2021/05/20 11:48:20;;;;;;;5.50;1.83;;;24.90;43.70;;;;;;4968785;28;20437;-77
2021/05/20 11:50:53;;;;;;;7.57;4.72;;;24.00;44.10;;;;;;4968946;28;20437;-77
2021/05/20 11:53:19;;;;;;;2.40;2.20;;;22.70;47.10;;;;;;4968541;28;20035;-76
2021/05/20 11:55:46;;;;;;;4.78;2.63;;;23.10;46.50;;;;;;4968741;28;20030;-77
2021/05/20 11:58:16;;;;;;;2.53;2.33;;;24.90;44.30;;;;;;4968422;28;20038;-78
2021/05/20 12:00:42;;;;;;;3.70;1.70;;;25.90;43.40;;;;;;4969566;28;20115;-77
2021/05/20 12:03:09;;;;;;;2.60;1.98;;;25.40;43.30;;;;;;4968771;28;20109;-79
2021/05/20 12:05:36;;;;;;;2.05;1.60;;;26.70;41.70;;;;;;4969085;28;20027;-77
2021/05/20 12:08:02;;;;;;;3.35;3.00;;;26.40;40.90;;;;;;4968356;28;20027;-77
2021/05/20 12:10:28;;;;;;;5.25;2.50;;;27.80;40.50;;;;;;4968935;28;20027;-77
2021/05/20 12:12:57;;;;;;;1.73;1.30;;;28.60;40.20;;;;;;4968757;28;20027;-77
2021/05/20 12:15:25;;;;;;;2.45;1.58;;;26.40;40.00;;;;;;4968522;28;20038;-77
2021/05/20 12:17:51;;;;;;;5.28;3.40;;;24.40;42.10;;;;;;4968804;28;20034;-78
2021/05/20 12:20:19;;;;;;;2.92;1.73;;;25.50;42.50;;;;;;4968715;28;20023;-78
2021/05/20 12:22:45;;;;;;;2.05;1.10;;;27.00;39.70;;;;;;4968937;28;20035;-78
2021/05/20 12:25:14;;;;;;;2.25;1.65;;;25.60;39.70;;;;;;4968199;28;20187;-78
2021/05/20 12:27:39;;;;;;;1.33;1.00;;;25.60;42.00;;;;;;4968676;28;20033;-78
2021/05/20 12:30:11;;;;;;;1.83;1.53;;;27.60;38.10;;;;;;4968493;28;20027;-78
2021/05/20 12:32:41;;;;;;;2.05;1.80;;;27.60;38.70;;;;;;4969140;28;20401;-78
2021/05/20 12:35:07;;;;;;;3.17;1.50;;;28.70;38.50;;;;;;4968378;28;20490;-78
2021/05/20 12:37:50;;;;;;;2.55;1.67;;;29.00;38.70;;;;;;4970950;28;20042;-77
2021/05/20 12:40:32;;;;;;;1.85;1.27;;;29.20;38.40;;;;;;4987870;28;20026;-79
2021/05/20 12:43:03;;;;;;;2.42;1.65;;;27.70;39.00;;;;;;4984310;28;20026;-77
2021/05/20 12:45:34;;;;;;;3.95;2.63;;;27.70;39.30;;;;;;4984607;28;20031;-77
2021/05/20 12:48:00;;;;;;;6.35;4.15;;;27.90;39.20;;;;;;4985859;28;20030;-77
2021/05/20 12:50:40;;;;;;;2.85;2.10;;;25.40;39.90;;;;;;4987798;28;20034;-78
2021/05/20 12:53:05;;;;;;;2.28;2.08;;;24.20;41.60;;;;;;4985186;28;20386;-77
2021/05/20 12:55:35;;;;;;;3.55;2.05;;;23.60;43.30;;;;;;4987882;28;20647;-78
2021/05/20 12:58:01;;;;;;;2.90;1.75;;;24.60;42.20;;;;;;4988053;28;20393;-78
2021/05/20 13:00:29;;;;;;;1.70;1.40;;;25.40;40.60;;;;;;4988057;28;20031;-79
2021/05/20 13:03:01;;;;;;;2.00;1.45;;;26.70;40.10;;;;;;4989307;28;20109;-77